TimeEST,TemperatureF,Dew PointF,Humidity,Sea Level PressureIn,VisibilityMPH,Wind Direction,Wind SpeedMPH,Gust SpeedMPH,PrecipitationIn,Events,Conditions,WindDirDegrees,DateUTC
12:25 AM,9.0,7.5,94,29.80,-9999.0,Calm,Calm,-,0.00,,Unknown,0,2013-02-14 05:25:00
1:25 AM,11.5,11.5,100,29.80,-9999.0,Calm,Calm,-,0.00,,Unknown,0,2013-02-14 06:25:00
2:25 AM,-9999,-9999,N/A,29.80,-9999.0,Calm,Calm,-,N/A,,Unknown,0,2013-02-14 07:25:00
3:25 AM,-9999,-9999,N/A,29.79,-9999.0,Calm,Calm,-,N/A,,Unknown,0,2013-02-14 08:25:00
4:25 AM,-9999,-9999,N/A,29.83,-9999.0,Calm,Calm,-,N/A,,Unknown,0,2013-02-14 09:25:00
5:25 AM,-9999,-9999,N/A,29.84,-9999.0,Calm,Calm,-,N/A,,Unknown,0,2013-02-14 10:25:00
6:25 AM,8.8,7.2,93,29.87,-9999.0,Calm,Calm,-,N/A,,Unknown,0,2013-02-14 11:25:00
7:25 AM,7.7,5.4,90,29.88,-9999.0,Calm,Calm,-,N/A,,Unknown,0,2013-02-14 12:25:00
8:25 AM,11.7,9.1,90,29.89,-9999.0,Calm,Calm,-,0.02,,Unknown,0,2013-02-14 13:25:00
9:25 AM,22.5,16.0,76,29.89,-9999.0,Variable,3.5,-,0.01,,Unknown,0,2013-02-14 14:25:00
10:27 AM,28.4,17.2,63,29.89,-9999.0,Variable,5.8,11.5,N/A,,Unknown,0,2013-02-14 15:27:00
11:25 AM,30.4,19.9,65,29.88,-9999.0,Variable,3.5,-,N/A,,Unknown,0,2013-02-14 16:25:00
12:26 PM,30.4,19.4,64,29.88,-9999.0,Variable,4.6,13.8,N/A,,Unknown,0,2013-02-14 17:26:00
1:25 PM,32.4,17.8,55,29.87,-9999.0,Variable,4.6,15.0,N/A,,Unknown,0,2013-02-14 18:25:00
2:27 PM,32.2,18.3,57,29.89,-9999.0,Variable,5.8,-,N/A,,Unknown,0,2013-02-14 19:27:00
3:25 PM,31.8,19.0,59,29.90,-9999.0,Calm,Calm,-,N/A,,Unknown,0,2013-02-14 20:25:00
4:25 PM,30.7,18.7,61,29.91,-9999.0,Calm,Calm,-,N/A,,Unknown,0,2013-02-14 21:25:00
5:25 PM,28.4,22.6,79,29.92,-9999.0,Calm,Calm,-,0.00,,Unknown,0,2013-02-14 22:25:00
6:25 PM,28.0,22.3,79,29.93,-9999.0,Calm,Calm,-,N/A,,Unknown,0,2013-02-14 23:25:00
7:25 PM,25.3,23.0,91,29.94,-9999.0,Calm,Calm,-,0.00,,Unknown,0,2013-02-15 00:25:00
8:25 PM,23.9,20.8,88,29.95,-9999.0,Calm,Calm,-,0.01,,Unknown,0,2013-02-15 01:25:00
9:27 PM,21.6,19.0,90,29.96,-9999.0,Calm,Calm,-,0.00,,Unknown,0,2013-02-15 02:27:00
10:25 PM,23.7,19.0,82,29.96,-9999.0,Calm,Calm,-,0.01,,Unknown,0,2013-02-15 03:25:00
11:25 PM,25.3,19.8,79,29.96,-9999.0,Calm,Calm,-,0.01,,Unknown,0,2013-02-15 04:25:00